Time;durP1;ratioP1;P1;durP2;ratioP2;P2;SDS_P1;SDS_P2;PMS_P1;PMS_P2;Temp;Humidity;BMP_temperature;BMP_pressure;BME280_temperature;BME280_humidity;BME280_pressure;Samples;Min_cycle;Max_cycle;Signal;HPM_P1;HPM_P2
2021/12/26 00:05:06;;;;;;;27.75;24.27;;;;;;;;;;12548373;28;20032;-73
2021/12/26 00:11:08;;;;;;;29.33;24.93;;;;;;;;;;12549324;28;20053;-74
2021/12/26 00:17:10;;;;;;;26.23;23.45;;;;;;;;;;12548147;28;20044;-73
2021/12/26 00:23:12;;;;;;;27.17;22.48;;;;;;;;;;12548756;28;20040;-73
2021/12/26 00:29:14;;;;;;;23.77;21.20;;;;;;;;;;12548511;28;20044;-73
2021/12/26 00:35:17;;;;;;;21.42;18.98;;;;;;;;;;12548772;28;20132;-73
2021/12/26 00:41:19;;;;;;;21.63;19.20;;;;;;;;;;12531265;28;20047;-74
2021/12/26 00:47:20;;;;;;;22.25;18.75;;;;;;;;;;12547545;28;20033;-74
2021/12/26 00:53:22;;;;;;;22.33;19.15;;;;;;;;;;12546982;28;20048;-74
2021/12/26 00:59:24;;;;;;;22.55;19.60;;;;;;;;;;12529514;28;20059;-72
2021/12/26 01:05:27;;;;;;;22.53;18.67;;;;;;;;;;12545541;28;20033;-72
2021/12/26 01:11:37;;;;;;;21.70;19.40;;;;;;;;;;12544616;28;20056;-73
2021/12/26 01:17:43;;;;;;;23.35;20.27;;;;;;;;;;12528598;28;20053;-72
2021/12/26 01:23:53;;;;;;;27.48;24.33;;;;;;;;;;12544838;28;20508;-72
2021/12/26 01:29:54;;;;;;;23.08;20.52;;;;;;;;;;12544484;28;20036;-73
2021/12/26 01:35:57;;;;;;;22.93;19.13;;;;;;;;;;12543946;28;20036;-72
2021/12/26 01:42:33;;;;;;;21.63;18.25;;;;;;;;;;12533021;28;20033;-72
2021/12/26 01:49:01;;;;;;;19.10;16.70;;;;;;;;;;12543694;28;20091;-72
2021/12/26 02:01:35;;;;;;;19.05;16.95;;;;;;;;;;12529282;28;20049;-72
2021/12/26 02:07:37;;;;;;;18.60;16.35;;;;;;;;;;12526338;28;20039;-72
2021/12/26 02:13:39;;;;;;;21.17;18.55;;;;;;;;;;12526766;28;20049;-72
2021/12/26 02:19:43;;;;;;;19.42;17.42;;;;;;;;;;12542928;28;20048;-72
2021/12/26 02:27:31;;;;;;;17.98;16.05;;;;;;;;;;12542912;28;20041;-72
2021/12/26 02:32:08;;;;;;;17.45;15.65;;;;;;;;;;12542392;28;20037;-72
2021/12/26 02:38:10;;;;;;;17.23;15.43;;;;;;;;;;12542439;28;20041;-72
2021/12/26 02:44:12;;;;;;;16.07;14.40;;;;;;;;;;12542899;28;20510;-73
2021/12/26 02:50:20;;;;;;;15.60;14.00;;;;;;;;;;12542309;28;20041;-72
2021/12/26 02:56:26;;;;;;;18.52;16.55;;;;;;;;;;12525905;28;20041;-73
2021/12/26 03:02:28;;;;;;;16.83;15.15;;;;;;;;;;12542130;28;20037;-72
2021/12/26 03:08:31;;;;;;;14.95;13.35;;;;;;;;;;12541571;28;20358;-72
2021/12/26 03:14:32;;;;;;;15.85;14.25;;;;;;;;;;12541468;28;20406;-73
2021/12/26 03:20:38;;;;;;;17.80;16.00;;;;;;;;;;12524982;28;20044;-72
2021/12/26 03:26:40;;;;;;;17.75;15.52;;;;;;;;;;12541570;28;20037;-73
2021/12/26 03:32:41;;;;;;;15.82;14.23;;;;;;;;;;12542224;28;20397;-73
2021/12/26 03:38:43;;;;;;;18.25;16.30;;;;;;;;;;12549978;28;20044;-72
2021/12/26 03:44:53;;;;;;;21.67;19.33;;;;;;;;;;12550158;28;20037;-72
2021/12/26 03:50:57;;;;;;;25.00;21.30;;;;;;;;;;12549216;28;20028;-73
2021/12/26 03:57:00;;;;;;;20.67;18.58;;;;;;;;;;12550339;28;20048;-72
2021/12/26 04:03:03;;;;;;;19.38;17.30;;;;;;;;;;12548621;28;20040;-73
2021/12/26 04:09:10;;;;;;;16.83;15.13;;;;;;;;;;12548548;28;20045;-73
2021/12/26 04:15:13;;;;;;;19.90;17.85;;;;;;;;;;12532208;28;20079;-72
2021/12/26 04:21:15;;;;;;;16.10;13.18;;;;;;;;;;12531257;28;20044;-72
2021/12/26 04:27:28;;;;;;;15.90;14.27;;;;;;;;;;12532850;28;20040;-72
2021/12/26 04:33:29;;;;;;;14.20;12.75;;;;;;;;;;12547227;28;20132;-73
2021/12/26 04:39:31;;;;;;;14.05;12.70;;;;;;;;;;12547371;28;20041;-72
2021/12/26 04:45:33;;;;;;;12.52;11.05;;;;;;;;;;12546546;28;20052;-73
2021/12/26 04:51:53;;;;;;;10.50;9.50;;;;;;;;;;12547514;28;20045;-72
2021/12/26 04:57:58;;;;;;;10.23;9.23;;;;;;;;;;12546118;28;20037;-72
2021/12/26 05:04:00;;;;;;;14.60;13.23;;;;;;;;;;12528945;28;20041;-72
2021/12/26 05:10:02;;;;;;;14.82;13.07;;;;;;;;;;12546718;28;20048;-73
2021/12/26 05:16:04;;;;;;;14.32;12.55;;;;;;;;;;12546203;28;20492;-72
2021/12/26 05:22:07;;;;;;;16.55;14.98;;;;;;;;;;12544804;28;20040;-73
2021/12/26 05:28:10;;;;;;;15.27;12.45;;;;;;;;;;12544725;28;20044;-72
2021/12/26 05:34:12;;;;;;;19.13;16.07;;;;;;;;;;12527665;28;20057;-72
2021/12/26 05:40:15;;;;;;;27.43;19.23;;;;;;;;;;12544914;28;20779;-72
2021/12/26 05:46:17;;;;;;;18.13;16.63;;;;;;;;;;12544023;28;20040;-73
2021/12/26 05:52:19;;;;;;;16.30;11.57;;;;;;;;;;12543503;28;20299;-72
2021/12/26 05:58:25;;;;;;;14.98;13.57;;;;;;;;;;12543677;28;20033;-73
2021/12/26 06:04:30;;;;;;;14.32;12.90;;;;;;;;;;12544063;28;20470;-72
2021/12/26 06:10:32;;;;;;;15.35;13.38;;;;;;;;;;12543441;28;20049;-72
2021/12/26 06:16:34;;;;;;;13.20;11.65;;;;;;;;;;12542877;28;20080;-72
2021/12/26 06:22:37;;;;;;;12.35;11.10;;;;;;;;;;12542482;28;20115;-72
2021/12/26 06:28:41;;;;;;;12.27;11.07;;;;;;;;;;12543636;28;20029;-72
2021/12/26 06:35:12;;;;;;;13.10;10.63;;;;;;;;;;12543274;28;20048;-72
2021/12/26 06:41:33;;;;;;;12.35;11.27;;;;;;;;;;12545043;28;20029;-72
2021/12/26 06:47:42;;;;;;;10.73;9.82;;;;;;;;;;12542291;28;20048;-72
2021/12/26 06:53:43;;;;;;;12.68;11.60;;;;;;;;;;12542054;28;20041;-72
2021/12/26 06:59:45;;;;;;;18.50;16.52;;;;;;;;;;12543355;28;20029;-72
2021/12/26 07:05:48;;;;;;;22.90;19.80;;;;;;;;;;12541830;28;20033;-72
2021/12/26 07:11:54;;;;;;;12.98;11.77;;;;;;;;;;12548175;28;20045;-72
2021/12/26 07:18:08;;;;;;;13.05;11.85;;;;;;;;;;12550972;28;20493;-72
2021/12/26 07:24:13;;;;;;;15.80;14.40;;;;;;;;;;12534468;28;20064;-72
2021/12/26 07:30:15;;;;;;;16.15;14.23;;;;;;;;;;12549777;28;20029;-72
2021/12/26 07:36:17;;;;;;;16.60;15.00;;;;;;;;;;12549634;28;20410;-72
2021/12/26 07:42:48;;;;;;;19.70;17.75;;;;;;;;;;12551161;28;20045;-72
2021/12/26 07:49:10;;;;;;;16.33;14.07;;;;;;;;;;12550238;28;20045;-73
2021/12/26 07:55:34;;;;;;;28.65;21.50;;;;;;;;;;12547250;28;20406;-74
2021/12/26 08:01:54;;;;;;;24.98;21.98;;;;;;;;;;12548973;28;20489;-73
2021/12/26 08:08:22;;;;;;;17.90;16.30;;;;;;;;;;12548615;28;20044;-73
2021/12/26 08:14:24;;;;;;;17.98;16.38;;;;;;;;;;12547829;28;20406;-74
2021/12/26 08:20:26;;;;;;;20.73;18.83;;;;;;;;;;12546915;28;20037;-73
2021/12/26 08:26:28;;;;;;;17.02;15.52;;;;;;;;;;12546894;28;20044;-72
2021/12/26 08:32:32;;;;;;;15.27;13.88;;;;;;;;;;12548568;28;20052;-72
2021/12/26 08:38:34;;;;;;;13.35;12.15;;;;;;;;;;12548061;28;20033;-72
2021/12/26 08:44:36;;;;;;;14.70;13.30;;;;;;;;;;12547731;28;20473;-72
2021/12/26 08:50:38;;;;;;;13.55;12.13;;;;;;;;;;12555486;28;20041;-72
2021/12/26 08:56:40;;;;;;;15.65;12.90;;;;;;;;;;12546001;28;20067;-72
2021/12/26 09:02:42;;;;;;;11.10;10.07;;;;;;;;;;12545553;28;20043;-72
2021/12/26 09:08:44;;;;;;;19.73;17.65;;;;;;;;;;12544766;28;20513;-73
2021/12/26 09:14:45;;;;;;;10.40;9.40;;;;;;;;;;12546485;28;20045;-72
2021/12/26 09:20:47;;;;;;;17.38;15.68;;;;;;;;;;12545938;28;20032;-73
2021/12/26 09:26:49;;;;;;;17.88;16.08;;;;;;;;;;12545013;28;20382;-73
2021/12/26 09:32:51;;;;;;;21.02;18.92;;;;;;;;;;12545306;28;20045;-73
2021/12/26 09:38:52;;;;;;;20.65;18.55;;;;;;;;;;12527985;28;20366;-72
2021/12/26 09:44:54;;;;;;;23.60;21.20;;;;;;;;;;12544737;28;20041;-73
2021/12/26 09:50:56;;;;;;;27.80;25.10;;;;;;;;;;12543705;28;20029;-73
2021/12/26 09:56:57;;;;;;;28.77;25.90;;;;;;;;;;12543091;28;20036;-73
2021/12/26 10:03:18;;;;;;;23.75;21.45;;;;;;;;;;12543073;28;20041;-72
2021/12/26 10:09:21;;;;;;;21.13;19.23;;;;;;;;;;12542832;28;20057;-72
2021/12/26 10:15:42;;;;;;;15.45;14.05;;;;;;;;;;12543580;28;20049;-72
2021/12/26 10:21:44;;;;;;;14.65;13.38;;;;;;;;;;12543601;28;20037;-73
2021/12/26 10:27:48;;;;;;;17.75;16.08;;;;;;;;;;12542967;28;20028;-73
2021/12/26 10:33:50;;;;;;;17.13;15.57;;;;;;;;;;12542077;28;20045;-73
2021/12/26 10:39:53;;;;;;;14.63;13.33;;;;;;;;;;12544001;28;20041;-73
2021/12/26 10:45:55;;;;;;;15.93;14.50;;;;;;;;;;12550060;28;20474;-73
2021/12/26 10:51:57;;;;;;;13.98;12.73;;;;;;;;;;12553090;28;20143;-73
2021/12/26 10:58:04;;;;;;;15.60;14.27;;;;;;;;;;12552708;28;20044;-73
2021/12/26 11:04:06;;;;;;;12.73;11.63;;;;;;;;;;12551377;28;20029;-72
2021/12/26 11:10:13;;;;;;;15.15;13.75;;;;;;;;;;12551186;28;20056;-73
2021/12/26 11:16:16;;;;;;;17.85;16.15;;;;;;;;;;12550766;28;20045;-73
2021/12/26 11:22:18;;;;;;;18.73;17.10;;;;;;;;;;12550851;28;20029;-73
2021/12/26 11:28:26;;;;;;;20.77;18.88;;;;;;;;;;12551457;28;20045;-73
2021/12/26 11:34:31;;;;;;;15.20;13.88;;;;;;;;;;12534116;28;20049;-73
2021/12/26 11:40:32;;;;;;;25.13;22.83;;;;;;;;;;12549375;28;20029;-74
2021/12/26 11:47:09;;;;;;;18.40;16.67;;;;;;;;;;12550070;28;20037;-73
2021/12/26 11:53:43;;;;;;;17.70;16.02;;;;;;;;;;12549797;28;20056;-73
2021/12/26 11:59:56;;;;;;;22.13;20.17;;;;;;;;;;12548937;28;20494;-74
2021/12/26 12:05:58;;;;;;;18.95;17.25;;;;;;;;;;12548513;28;20041;-74
2021/12/26 12:12:06;;;;;;;18.77;17.08;;;;;;;;;;12549423;28;20098;-72
2021/12/26 12:18:09;;;;;;;15.80;14.40;;;;;;;;;;12548867;28;20037;-73
2021/12/26 12:24:14;;;;;;;14.35;13.05;;;;;;;;;;12549039;28;20040;-72
2021/12/26 12:30:26;;;;;;;13.00;11.90;;;;;;;;;;12547485;28;20406;-72
2021/12/26 12:36:29;;;;;;;15.00;13.63;;;;;;;;;;12548282;28;20063;-72
2021/12/26 12:42:31;;;;;;;12.63;11.55;;;;;;;;;;12547187;28;20052;-72
2021/12/26 12:48:59;;;;;;;13.43;12.23;;;;;;;;;;12529855;28;20429;-72
2021/12/26 12:55:01;;;;;;;13.98;12.68;;;;;;;;;;12546877;28;20045;-72
2021/12/26 13:01:05;;;;;;;13.23;12.02;;;;;;;;;;12545516;28;20033;-73
2021/12/26 13:07:07;;;;;;;15.68;14.27;;;;;;;;;;12528913;28;20048;-74
2021/12/26 13:13:09;;;;;;;14.37;13.07;;;;;;;;;;12546857;28;20150;-73
2021/12/26 13:19:11;;;;;;;13.23;12.07;;;;;;;;;;12546809;28;20037;-73
2021/12/26 13:25:15;;;;;;;13.48;12.27;;;;;;;;;;12545218;28;20051;-73
2021/12/26 13:31:25;;;;;;;13.52;12.32;;;;;;;;;;12544138;28;20037;-72
2021/12/26 13:37:29;;;;;;;13.00;11.88;;;;;;;;;;12544084;28;20041;-73
2021/12/26 13:43:32;;;;;;;15.25;13.85;;;;;;;;;;12544541;28;20071;-74
2021/12/26 13:49:34;;;;;;;15.10;13.75;;;;;;;;;;12544771;28;20048;-74
2021/12/26 13:55:37;;;;;;;13.63;12.43;;;;;;;;;;12543303;28;20045;-73
2021/12/26 14:01:39;;;;;;;15.70;14.18;;;;;;;;;;12543769;28;20040;-73
2021/12/26 14:07:43;;;;;;;15.27;13.88;;;;;;;;;;12542914;28;20047;-74
2021/12/26 14:13:48;;;;;;;15.27;13.93;;;;;;;;;;12544233;28;20056;-74
2021/12/26 14:19:58;;;;;;;15.45;14.02;;;;;;;;;;12544017;28;20037;-73
2021/12/26 14:26:05;;;;;;;13.75;12.55;;;;;;;;;;12543756;28;20048;-73
2021/12/26 14:32:08;;;;;;;26.88;24.17;;;;;;;;;;12543770;28;20029;-73
2021/12/26 14:38:14;;;;;;;18.47;16.77;;;;;;;;;;12525762;28;20041;-73
2021/12/26 14:44:18;;;;;;;19.90;18.00;;;;;;;;;;12543406;28;20040;-73
2021/12/26 14:50:23;;;;;;;27.73;24.90;;;;;;;;;;12543386;28;20036;-73
2021/12/26 14:56:26;;;;;;;21.52;19.42;;;;;;;;;;12525299;28;20045;-74
2021/12/26 15:02:35;;;;;;;24.48;22.23;;;;;;;;;;12542233;28;20033;-74
2021/12/26 15:08:37;;;;;;;20.83;18.83;;;;;;;;;;12524679;28;20025;-74
2021/12/26 15:14:39;;;;;;;27.27;24.63;;;;;;;;;;12541315;28;20053;-72
2021/12/26 15:20:41;;;;;;;26.38;23.92;;;;;;;;;;12542284;28;20059;-72
2021/12/26 15:26:43;;;;;;;22.92;20.77;;;;;;;;;;12541473;28;20037;-73
2021/12/26 15:32:47;;;;;;;28.90;26.10;;;;;;;;;;12546975;28;20041;-73
2021/12/26 15:38:50;;;;;;;31.83;28.73;;;;;;;;;;12551213;28;20044;-73
2021/12/26 15:44:52;;;;;;;32.22;29.25;;;;;;;;;;12549898;28;20506;-73
2021/12/26 15:50:53;;;;;;;29.08;26.30;;;;;;;;;;12550402;28;20032;-73
2021/12/26 15:56:55;;;;;;;34.05;30.75;;;;;;;;;;12550511;28;20075;-73
2021/12/26 16:02:57;;;;;;;29.77;26.90;;;;;;;;;;12548566;28;20040;-73
2021/12/26 16:09:05;;;;;;;28.77;26.10;;;;;;;;;;12548463;28;20049;-73
2021/12/26 16:15:07;;;;;;;20.58;18.58;;;;;;;;;;12548158;28;20053;-73
2021/12/26 16:21:09;;;;;;;26.60;24.20;;;;;;;;;;12548976;28;20033;-73
2021/12/26 16:27:11;;;;;;;23.35;21.13;;;;;;;;;;12547567;28;20348;-73
2021/12/26 16:33:13;;;;;;;19.10;17.20;;;;;;;;;;12548185;28;20049;-73
2021/12/26 16:39:14;;;;;;;22.33;20.13;;;;;;;;;;12547210;28;20061;-72
2021/12/26 16:45:17;;;;;;;20.05;18.15;;;;;;;;;;12547520;28;20394;-73
2021/12/26 16:51:18;;;;;;;18.60;16.93;;;;;;;;;;12547835;28;20033;-73
2021/12/26 16:57:20;;;;;;;18.05;16.40;;;;;;;;;;12546070;28;20504;-73
2021/12/26 17:03:22;;;;;;;19.17;17.38;;;;;;;;;;12547022;28;20048;-73
2021/12/26 17:09:24;;;;;;;19.55;17.83;;;;;;;;;;12528886;28;20060;-73
2021/12/26 17:15:25;;;;;;;21.38;19.38;;;;;;;;;;12528675;28;20049;-73
2021/12/26 17:21:27;;;;;;;20.38;18.27;;;;;;;;;;12544765;28;20040;-72
2021/12/26 17:27:29;;;;;;;25.00;22.60;;;;;;;;;;12545980;28;20037;-72
2021/12/26 17:33:33;;;;;;;20.65;18.65;;;;;;;;;;12546172;28;20413;-73
2021/12/26 17:39:36;;;;;;;20.33;18.40;;;;;;;;;;12545925;28;20037;-73
2021/12/26 17:45:40;;;;;;;20.95;18.98;;;;;;;;;;12543936;28;20047;-73
2021/12/26 17:51:42;;;;;;;20.77;18.98;;;;;;;;;;12544677;28;20045;-74
2021/12/26 17:57:45;;;;;;;19.35;17.55;;;;;;;;;;12544447;28;20048;-74
2021/12/26 18:03:46;;;;;;;20.92;18.92;;;;;;;;;;12544444;28;20032;-73
2021/12/26 18:09:48;;;;;;;18.25;16.67;;;;;;;;;;12526677;28;20048;-72
2021/12/26 18:15:52;;;;;;;18.60;16.90;;;;;;;;;;12543890;28;20417;-75
2021/12/26 18:21:56;;;;;;;18.77;17.08;;;;;;;;;;12542596;28;20029;-73
2021/12/26 18:27:57;;;;;;;17.25;15.75;;;;;;;;;;12525796;28;20036;-74
2021/12/26 18:34:01;;;;;;;17.77;16.17;;;;;;;;;;12543434;28;20047;-73
2021/12/26 18:40:04;;;;;;;20.85;18.90;;;;;;;;;;12544003;28;20040;-72
2021/12/26 18:46:05;;;;;;;19.15;17.45;;;;;;;;;;12543681;28;20112;-72
2021/12/26 18:52:07;;;;;;;17.73;16.23;;;;;;;;;;12541888;28;20030;-73
2021/12/26 18:58:09;;;;;;;18.50;16.90;;;;;;;;;;12525202;28;20049;-73
2021/12/26 19:04:11;;;;;;;18.05;16.27;;;;;;;;;;12545384;28;20041;-74
2021/12/26 19:10:13;;;;;;;17.10;15.60;;;;;;;;;;12552813;28;20425;-72
2021/12/26 19:16:14;;;;;;;20.00;18.08;;;;;;;;;;12550877;28;20466;-72
2021/12/26 19:22:16;;;;;;;15.80;14.50;;;;;;;;;;12552007;28;20036;-72
2021/12/26 19:28:20;;;;;;;15.82;14.43;;;;;;;;;;12552488;28;20037;-72
2021/12/26 19:34:22;;;;;;;18.95;17.35;;;;;;;;;;12551372;28;20037;-72
2021/12/26 19:40:27;;;;;;;19.13;17.33;;;;;;;;;;12551803;28;20335;-73
2021/12/26 19:46:30;;;;;;;18.63;17.02;;;;;;;;;;12549354;28;20037;-74
2021/12/26 19:52:31;;;;;;;;;;;;;;;;;;12549676;28;20033;-73
2021/12/26 19:58:33;;;;;;;15.20;13.90;;;;;;;;;;12548881;28;20296;-73
2021/12/26 20:04:35;;;;;;;13.37;12.33;;;;;;;;;;12548546;28;20037;-72
2021/12/26 20:10:37;;;;;;;14.77;13.57;;;;;;;;;;12549870;28;20516;-72
2021/12/26 20:16:40;;;;;;;15.82;14.50;;;;;;;;;;12547665;28;20068;-73
2021/12/26 20:22:42;;;;;;;16.60;15.18;;;;;;;;;;12549175;28;20037;-72
2021/12/26 20:28:44;;;;;;;14.50;13.40;;;;;;;;;;12547656;28;20036;-74
2021/12/26 20:34:45;;;;;;;15.10;13.90;;;;;;;;;;12547029;28;20048;-73
2021/12/26 20:40:48;;;;;;;16.90;15.52;;;;;;;;;;12547979;28;20374;-74
2021/12/26 20:46:50;;;;;;;15.43;14.23;;;;;;;;;;12547979;28;20041;-73
2021/12/26 20:52:52;;;;;;;15.77;14.57;;;;;;;;;;12529682;28;20418;-73
2021/12/26 20:58:53;;;;;;;18.73;17.13;;;;;;;;;;12547506;28;20036;-72
2021/12/26 21:04:55;;;;;;;22.75;20.65;;;;;;;;;;12547305;28;20032;-73
2021/12/26 21:11:02;;;;;;;20.77;19.15;;;;;;;;;;12547125;28;20106;-72
2021/12/26 21:17:03;;;;;;;20.02;18.30;;;;;;;;;;12546521;28;20049;-74
2021/12/26 21:23:05;;;;;;;18.55;17.08;;;;;;;;;;12545014;28;20442;-72
2021/12/26 21:29:07;;;;;;;22.13;20.23;;;;;;;;;;12543455;28;20033;-73
2021/12/26 21:35:09;;;;;;;20.50;18.73;;;;;;;;;;12544513;28;20398;-73
2021/12/26 21:41:11;;;;;;;23.65;21.65;;;;;;;;;;12546577;28;20036;-74
2021/12/26 21:47:12;;;;;;;20.48;18.77;;;;;;;;;;12545330;28;20041;-74
2021/12/26 21:53:15;;;;;;;20.17;18.63;;;;;;;;;;12544320;28;20037;-73
2021/12/26 21:59:17;;;;;;;19.00;17.50;;;;;;;;;;12544971;28;20029;-74
2021/12/26 22:05:19;;;;;;;23.37;21.57;;;;;;;;;;12544135;28;20033;-73
2021/12/26 22:11:21;;;;;;;19.45;17.90;;;;;;;;;;12544582;28;20056;-73
2021/12/26 22:17:22;;;;;;;21.25;19.42;;;;;;;;;;12526766;28;20049;-73
2021/12/26 22:23:24;;;;;;;22.55;20.73;;;;;;;;;;12542743;28;20033;-73
2021/12/26 22:29:26;;;;;;;20.77;19.02;;;;;;;;;;12525974;28;20055;-74
2021/12/26 22:35:28;;;;;;;20.17;18.40;;;;;;;;;;12544367;28;20048;-73
2021/12/26 22:41:30;;;;;;;20.80;19.15;;;;;;;;;;12531991;28;20509;-74
2021/12/26 22:47:32;;;;;;;25.05;22.77;;;;;;;;;;12553803;28;20048;-74
2021/12/26 22:53:34;;;;;;;25.17;23.08;;;;;;;;;;12552507;28;20037;-73
2021/12/26 22:59:36;;;;;;;25.75;23.65;;;;;;;;;;12552093;28;20025;-73
2021/12/26 23:05:38;;;;;;;28.15;25.67;;;;;;;;;;12551810;28;20033;-74
2021/12/26 23:11:39;;;;;;;26.55;24.27;;;;;;;;;;12552584;28;20418;-73
2021/12/26 23:17:41;;;;;;;29.40;26.90;;;;;;;;;;12552747;28;20056;-73
2021/12/26 23:23:43;;;;;;;25.58;23.35;;;;;;;;;;12552895;28;20044;-73
2021/12/26 23:29:45;;;;;;;37.00;33.80;;;;;;;;;;12534083;28;20033;-73
2021/12/26 23:35:47;;;;;;;34.55;31.65;;;;;;;;;;12550716;28;20068;-73
2021/12/26 23:41:48;;;;;;;35.72;32.63;;;;;;;;;;12551299;28;20032;-73
2021/12/26 23:47:51;;;;;;;30.23;27.67;;;;;;;;;;12550970;28;20037;-73
2021/12/26 23:53:54;;;;;;;25.48;23.30;;;;;;;;;;12549436;28;20044;-73
2021/12/26 23:59:56;;;;;;;25.00;22.75;;;;;;;;;;12549600;28;20037;-73
